Huron Regional Airport
KHON : now visible

Airfield :











YOU CAN JOIN US ON...

 
LOGIN :

Register | Disclaimer

   EN    FR    IT 

 









Legend :    VFR   Marginal VFR   IFR   Intensive IFR   Very Intensive IFR
Visi :
Ceiling :
>= 8 km
>= 3000ft
5 to 8 km
1000 to 3000 ft
1500m to 5 km
500 to 1000 ft
800 to 1500m
200 to 500 ft
< 800m
< 200 ft
Symbols :   Thunderstorms  Fog  Heavy snow  Heavy precipitations  Wind > 20 kt






- Airport Elevation : 1289 ft
- IATA code : HON


KHON - Huron Regional

CURRENT METAR :
  • 182255Z AUTO 14009KT 10SM FEW050 28/17 A3010 RMK AO2 SLP188 T02780167

EXPIRED METARs :
  • 182155Z AUTO 13010KT 10SM FEW050 28/17 A3011 RMK AO2 SLP192 T02780167
  • 182055Z AUTO 14007G19KT 10SM FEW050 27/16 A3013 RMK AO2 SLP198 T02720156 56015
  • 181955Z AUTO 17010KT 10SM FEW050 27/15 A3014 RMK AO2 SLP201 T02670150
  • 181855Z AUTO 11006KT 10SM CLR 26/14 A3016 RMK AO2 SLP208 T02610144

TAF KHON
Valid from the 19 at 00:00 until the 20 at 00:00 UTC


182320Z 1900/1924 15009KT P6SM SKC
FM190900 16009G16KT P6SM FEW250
FM191500 17009KT P6SM SCT090
PROB30 1918/1923 4SM TSRA BR OVC025CB
FM192300 30008KT P6SM BKN070
KZMP FIR / North America



MET'MAP, your aeronautical weather chart ! - Copyright ORBIFLY December 2007 - Disclaimer

ORBIFLY MET'MAP TEAM :

Programming & Development : Alexandra Zaïnal
Original concept : Baudouin d'Aumeries
Technical & hardware support : Manuel Goepfert
Assistance : Marc-Olivier Méhu




SOURCES & CREDITS :

   NOAA       Earth
Advisory